Time;durP1;ratioP1;P1;durP2;ratioP2;P2;SDS_P1;SDS_P2;PMS_P1;PMS_P2;Temp;Humidity;BMP_temperature;BMP_pressure;BME280_temperature;BME280_humidity;BME280_pressure;Samples;Min_cycle;Max_cycle;Signal;HPM_P1;HPM_P2
2021/01/01 00:00:18;;;;;;;34.08;22.63;;;;;;;;;;5144016;27;20267;-56
2021/01/01 00:02:59;;;;;;;32.97;23.75;;;;;;;;;;5149752;27;20215;-56
2021/01/01 00:05:27;;;;;;;30.00;22.70;;;;;;;;;;5160302;27;20221;-54
2021/01/01 00:07:55;;;;;;;31.25;21.25;;;;;;;;;;5151115;27;20210;-56
2021/01/01 00:10:23;;;;;;;26.60;19.45;;;;;;;;;;5138225;28;20230;-56
2021/01/01 00:12:49;;;;;;;31.25;19.98;;;;;;;;;;5138258;28;20411;-51
2021/01/01 00:15:25;;;;;;;24.63;18.90;;;;;;;;;;5154615;27;20195;-45
2021/01/01 00:17:52;;;;;;;28.38;20.95;;;;;;;;;;5158788;27;20202;-55
2021/01/01 00:20:20;;;;;;;33.03;22.73;;;;;;;;;;5148054;27;20203;-53
2021/01/01 00:22:55;;;;;;;29.00;20.45;;;;;;;;;;5137397;28;20210;-46
2021/01/01 00:25:22;;;;;;;33.22;19.65;;;;;;;;;;5151222;27;20238;-48
2021/01/01 00:27:49;;;;;;;33.97;22.80;;;;;;;;;;5158931;27;20218;-51
2021/01/01 00:30:18;;;;;;;38.30;24.73;;;;;;;;;;5161996;27;20387;-55
2021/01/01 00:32:45;;;;;;;104.20;55.17;;;;;;;;;;5145117;27;20215;-55
2021/01/01 00:35:12;;;;;;;43.40;28.20;;;;;;;;;;5144548;27;20211;-51
2021/01/01 00:37:40;;;;;;;38.83;27.38;;;;;;;;;;5145931;27;20190;-56
2021/01/01 00:40:08;;;;;;;47.83;31.63;;;;;;;;;;5139245;27;20195;-55
2021/01/01 00:42:35;;;;;;;53.20;32.05;;;;;;;;;;5145488;27;20190;-53
2021/01/01 00:45:03;;;;;;;43.88;32.08;;;;;;;;;;5137639;28;20283;-51
2021/01/01 00:47:29;;;;;;;58.28;34.72;;;;;;;;;;5157263;27;20203;-52
2021/01/01 00:49:56;;;;;;;46.47;33.22;;;;;;;;;;5150473;27;20246;-51
2021/01/01 00:52:31;;;;;;;57.30;34.70;;;;;;;;;;5154016;27;20194;-58
2021/01/01 00:55:01;;;;;;;45.67;30.88;;;;;;;;;;5153028;27;20185;-51
2021/01/01 00:57:30;;;;;;;48.50;32.40;;;;;;;;;;5157249;27;20206;-53
2021/01/01 00:59:59;;;;;;;48.85;30.60;;;;;;;;;;5158376;27;20185;-57
2021/01/01 01:02:30;;;;;;;57.72;33.60;;;;;;;;;;5149182;27;20269;-51
2021/01/01 01:04:57;;;;;;;48.15;31.67;;;;;;;;;;5145775;27;20230;-47
2021/01/01 01:07:24;;;;;;;43.28;28.73;;;;;;;;;;5138349;27;20266;-53
2021/01/01 01:10:26;;;;;;;40.33;30.05;;;;;;;;;;5156155;27;20187;-50
2021/01/01 01:12:54;;;;;;;41.85;27.05;;;;;;;;;;5156838;27;20220;-57
2021/01/01 01:15:21;;;;;;;46.00;29.80;;;;;;;;;;5154799;27;20239;-57
2021/01/01 01:18:22;;;;;;;44.80;29.30;;;;;;;;;;5137086;28;20191;-53
2021/01/01 01:20:49;;;;;;;37.17;24.50;;;;;;;;;;5136264;28;20213;-56
2021/01/01 01:23:18;;;;;;;35.85;25.20;;;;;;;;;;5136808;28;20264;-53
2021/01/01 01:25:52;;;;;;;40.45;26.17;;;;;;;;;;5150226;27;20211;-52
2021/01/01 01:28:19;;;;;;;36.78;25.25;;;;;;;;;;5157471;27;20250;-56
2021/01/01 01:30:46;;;;;;;44.47;30.67;;;;;;;;;;5156829;27;20192;-53
2021/01/01 01:33:39;;;;;;;41.17;26.75;;;;;;;;;;5156488;27;20194;-53
2021/01/01 01:36:06;;;;;;;42.35;25.73;;;;;;;;;;5135916;28;20242;-54
2021/01/01 01:38:33;;;;;;;47.15;27.75;;;;;;;;;;5142974;27;20300;-53
2021/01/01 01:41:38;;;;;;;46.63;25.15;;;;;;;;;;5157764;27;20239;-53
2021/01/01 01:44:06;;;;;;;39.58;23.80;;;;;;;;;;5137230;27;20264;-59
2021/01/01 01:46:48;;;;;;;41.05;26.20;;;;;;;;;;5137151;28;20216;-51
2021/01/01 01:49:16;;;;;;;39.28;25.13;;;;;;;;;;5118378;28;20197;-48
2021/01/01 01:51:45;;;;;;;43.70;28.20;;;;;;;;;;5116820;28;20194;-55
2021/01/01 01:54:24;;;;;;;53.58;35.20;;;;;;;;;;5121116;28;20179;-53
2021/01/01 01:56:53;;;;;;;41.45;28.38;;;;;;;;;;5119195;28;20199;-57
2021/01/01 01:59:22;;;;;;;47.75;27.33;;;;;;;;;;5133827;28;20211;-57
2021/01/01 02:01:49;;;;;;;45.70;29.65;;;;;;;;;;5136598;28;20199;-51
2021/01/01 02:04:16;;;;;;;44.33;30.63;;;;;;;;;;5136257;28;20261;-52
2021/01/01 02:06:50;;;;;;;47.60;30.50;;;;;;;;;;5136355;28;20217;-52
2021/01/01 02:09:35;;;;;;;52.28;34.08;;;;;;;;;;5136032;28;20203;-56
2021/01/01 02:12:08;;;;;;;54.78;35.05;;;;;;;;;;5133031;28;20236;-55
2021/01/01 02:14:37;;;;;;;56.35;36.40;;;;;;;;;;5123910;28;20191;-54
2021/01/01 02:17:04;;;;;;;78.53;44.08;;;;;;;;;;5120272;28;20236;-59
2021/01/01 02:19:32;;;;;;;70.20;41.20;;;;;;;;;;5131106;28;20215;-52
2021/01/01 02:22:00;;;;;;;71.20;43.47;;;;;;;;;;5135458;28;20225;-51
2021/01/01 02:24:28;;;;;;;73.55;44.67;;;;;;;;;;5127214;28;20227;-51
2021/01/01 02:27:02;;;;;;;78.13;43.20;;;;;;;;;;5123136;28;20176;-54
2021/01/01 02:29:29;;;;;;;70.53;42.53;;;;;;;;;;5125749;28;20197;-50
2021/01/01 02:32:01;;;;;;;63.63;38.05;;;;;;;;;;5116002;28;20263;-54
2021/01/01 02:34:29;;;;;;;64.80;40.38;;;;;;;;;;5115753;28;20221;-51
2021/01/01 02:36:55;;;;;;;59.22;36.55;;;;;;;;;;5126009;28;20203;-57
2021/01/01 02:39:22;;;;;;;59.85;34.55;;;;;;;;;;5135460;28;20191;-55
2021/01/01 02:41:54;;;;;;;57.85;34.42;;;;;;;;;;5115589;28;20202;-53
2021/01/01 02:44:21;;;;;;;50.05;33.08;;;;;;;;;;5113101;28;20204;-49
2021/01/01 02:46:49;;;;;;;50.10;32.17;;;;;;;;;;5116026;28;20208;-51
2021/01/01 02:49:17;;;;;;;50.63;31.38;;;;;;;;;;5108787;28;20216;-52
2021/01/01 02:51:44;;;;;;;50.95;29.55;;;;;;;;;;5123688;28;20257;-59
2021/01/01 02:54:11;;;;;;;47.72;30.88;;;;;;;;;;5136154;28;20218;-58
2021/01/01 02:56:44;;;;;;;53.42;30.77;;;;;;;;;;5136457;28;20215;-54
2021/01/01 02:59:12;;;;;;;45.10;28.80;;;;;;;;;;5136679;28;20199;-53
2021/01/01 03:01:39;;;;;;;46.28;28.95;;;;;;;;;;5126699;28;20193;-50
2021/01/01 03:04:11;;;;;;;50.65;29.77;;;;;;;;;;5115984;28;20226;-53
2021/01/01 03:06:38;;;;;;;45.85;29.98;;;;;;;;;;5134030;28;20329;-54
2021/01/01 03:09:10;;;;;;;47.13;29.55;;;;;;;;;;5126412;28;20207;-56
2021/01/01 03:11:36;;;;;;;46.15;28.58;;;;;;;;;;5115196;28;20208;-53
2021/01/01 03:14:03;;;;;;;47.42;29.08;;;;;;;;;;5115571;28;20218;-46
2021/01/01 03:16:37;;;;;;;45.83;28.60;;;;;;;;;;5131669;28;20213;-55
2021/01/01 03:19:04;;;;;;;47.35;28.70;;;;;;;;;;5135125;28;20202;-51
2021/01/01 03:21:34;;;;;;;55.25;31.70;;;;;;;;;;5138276;28;20218;-52
2021/01/01 03:24:04;;;;;;;52.10;28.58;;;;;;;;;;5139398;28;20215;-52
2021/01/01 03:26:31;;;;;;;47.20;27.70;;;;;;;;;;5139376;28;20198;-51
2021/01/01 03:28:58;;;;;;;52.88;26.88;;;;;;;;;;5138896;28;20188;-55
2021/01/01 03:31:25;;;;;;;48.30;29.70;;;;;;;;;;5128463;28;20191;-51
2021/01/01 03:33:53;;;;;;;54.90;31.73;;;;;;;;;;5122753;28;20195;-54
2021/01/01 03:36:20;;;;;;;55.05;30.90;;;;;;;;;;5132022;28;20195;-53
2021/01/01 03:39:07;;;;;;;51.30;30.83;;;;;;;;;;5120560;28;20259;-55
2021/01/01 03:41:34;;;;;;;47.38;28.05;;;;;;;;;;5137018;28;20261;-53
2021/01/01 03:46:49;;;;;;;59.53;34.80;;;;;;;;;;5140169;28;20210;-53
2021/01/01 03:49:30;;;;;;;54.88;32.05;;;;;;;;;;5139407;28;20191;-53
2021/01/01 03:55:01;;;;;;;54.28;30.83;;;;;;;;;;5118639;28;20331;-50
2021/01/01 03:57:28;;;;;;;58.38;32.40;;;;;;;;;;5123674;28;20229;-54
2021/01/01 03:59:55;;;;;;;54.47;32.30;;;;;;;;;;5122506;28;20218;-51
2021/01/01 04:02:22;;;;;;;63.60;36.30;;;;;;;;;;5122378;28;20212;-56
2021/01/01 04:04:51;;;;;;;58.83;36.28;;;;;;;;;;5122561;28;20226;-50
2021/01/01 04:07:19;;;;;;;61.42;36.10;;;;;;;;;;5127959;28;20218;-53
2021/01/01 04:09:46;;;;;;;60.20;35.53;;;;;;;;;;5129849;28;20211;-49
2021/01/01 04:12:12;;;;;;;69.80;38.15;;;;;;;;;;5131752;28;20198;-58
2021/01/01 04:14:54;;;;;;;65.82;37.75;;;;;;;;;;5128336;28;20194;-55
2021/01/01 04:17:21;;;;;;;69.18;38.20;;;;;;;;;;5117706;28;20211;-55
2021/01/01 04:19:48;;;;;;;68.68;38.72;;;;;;;;;;5138428;28;20216;-51
2021/01/01 04:22:35;;;;;;;70.45;36.42;;;;;;;;;;5138112;27;20202;-55
2021/01/01 04:25:02;;;;;;;72.57;38.08;;;;;;;;;;5124840;28;20228;-56
2021/01/01 04:27:29;;;;;;;66.55;37.17;;;;;;;;;;5129640;28;20213;-49
2021/01/01 04:29:56;;;;;;;71.68;43.17;;;;;;;;;;5134710;28;20207;-43
2021/01/01 04:32:24;;;;;;;66.20;36.28;;;;;;;;;;5137847;27;20199;-52
2021/01/01 04:34:52;;;;;;;58.00;33.05;;;;;;;;;;5138080;28;20203;-57
2021/01/01 04:37:33;;;;;;;61.00;36.38;;;;;;;;;;5137546;28;20213;-57
2021/01/01 04:40:00;;;;;;;69.18;37.92;;;;;;;;;;5138326;28;20236;-60
2021/01/01 04:42:28;;;;;;;56.15;35.00;;;;;;;;;;5133206;28;20225;-56
2021/01/01 04:44:57;;;;;;;59.58;34.42;;;;;;;;;;5118027;28;20223;-55
2021/01/01 04:47:26;;;;;;;51.88;31.60;;;;;;;;;;5138508;28;20194;-54
2021/01/01 04:49:53;;;;;;;54.05;33.00;;;;;;;;;;5123478;28;20194;-54
2021/01/01 04:52:31;;;;;;;54.20;31.35;;;;;;;;;;5123579;28;20461;-49
2021/01/01 04:55:00;;;;;;;57.63;32.70;;;;;;;;;;5134722;28;20211;-51
2021/01/01 04:57:28;;;;;;;58.88;32.13;;;;;;;;;;5116671;28;20202;-55
2021/01/01 05:00:17;;;;;;;54.42;30.92;;;;;;;;;;5136683;28;20202;-52
2021/01/01 05:02:46;;;;;;;53.78;29.65;;;;;;;;;;5137029;28;20197;-52
2021/01/01 05:05:17;;;;;;;55.28;32.35;;;;;;;;;;5128503;28;20235;-56
2021/01/01 05:07:51;;;;;;;44.58;26.52;;;;;;;;;;5119369;28;20187;-54
2021/01/01 05:10:18;;;;;;;45.85;27.85;;;;;;;;;;5134348;28;20203;-58
2021/01/01 05:12:46;;;;;;;52.20;30.40;;;;;;;;;;5133764;28;20550;-56
2021/01/01 05:15:41;;;;;;;45.97;27.63;;;;;;;;;;5116269;28;20214;-48
2021/01/01 05:18:18;;;;;;;49.40;29.40;;;;;;;;;;5116700;28;20519;-57
2021/01/01 05:20:45;;;;;;;41.05;26.23;;;;;;;;;;5115885;28;20204;-56
2021/01/01 05:23:19;;;;;;;47.95;28.95;;;;;;;;;;5117272;28;20226;-52
2021/01/01 05:25:46;;;;;;;45.30;27.05;;;;;;;;;;5116845;28;20228;-53
2021/01/01 05:31:19;;;;;;;40.60;26.73;;;;;;;;;;5124458;28;20248;-49
2021/01/01 05:33:51;;;;;;;43.60;27.00;;;;;;;;;;5117980;28;20215;-56
2021/01/01 05:36:40;;;;;;;50.20;27.08;;;;;;;;;;5117835;28;20202;-55
2021/01/01 05:39:09;;;;;;;46.75;27.73;;;;;;;;;;5117897;28;20188;-56
2021/01/01 05:41:37;;;;;;;41.72;26.35;;;;;;;;;;5118540;28;20173;-57
2021/01/01 05:44:26;;;;;;;42.38;27.35;;;;;;;;;;5117389;28;20200;-55
2021/01/01 05:46:57;;;;;;;39.35;24.95;;;;;;;;;;5117877;28;20247;-58
2021/01/01 05:49:25;;;;;;;48.85;27.35;;;;;;;;;;5117358;28;20204;-51
2021/01/01 05:52:05;;;;;;;44.05;25.65;;;;;;;;;;5116191;28;20199;-60
2021/01/01 05:54:32;;;;;;;45.75;26.40;;;;;;;;;;5116718;28;20192;-52
2021/01/01 05:57:05;;;;;;;43.65;26.98;;;;;;;;;;5117019;28;20199;-54
2021/01/01 05:59:34;;;;;;;46.47;28.35;;;;;;;;;;5117030;28;20203;-52
2021/01/01 06:02:03;;;;;;;39.28;24.33;;;;;;;;;;5116632;28;20207;-55
2021/01/01 06:04:38;;;;;;;39.38;22.75;;;;;;;;;;5116562;28;20223;-56
2021/01/01 06:07:06;;;;;;;40.33;23.33;;;;;;;;;;5116800;28;20198;-52
2021/01/01 06:09:33;;;;;;;40.78;25.00;;;;;;;;;;5116154;28;20196;-56
2021/01/01 06:12:28;;;;;;;43.78;25.10;;;;;;;;;;5115931;28;20219;-51
2021/01/01 06:15:02;;;;;;;37.63;24.80;;;;;;;;;;5116040;28;20191;-56
2021/01/01 06:17:39;;;;;;;39.38;24.08;;;;;;;;;;5117191;28;20180;-53
2021/01/01 06:20:07;;;;;;;36.80;23.38;;;;;;;;;;5116790;28;20203;-55
2021/01/01 06:22:33;;;;;;;32.83;21.63;;;;;;;;;;5115733;28;20186;-53
2021/01/01 06:25:17;;;;;;;39.58;25.17;;;;;;;;;;5099024;28;20227;-51
2021/01/01 06:27:44;;;;;;;39.63;24.73;;;;;;;;;;5129867;28;20214;-58
2021/01/01 06:30:12;;;;;;;38.75;22.90;;;;;;;;;;5137011;28;20187;-55
2021/01/01 06:32:40;;;;;;;37.30;22.17;;;;;;;;;;5136943;28;20203;-50
2021/01/01 06:35:12;;;;;;;33.25;21.50;;;;;;;;;;5136672;27;20220;-50
2021/01/01 06:38:04;;;;;;;34.78;22.98;;;;;;;;;;5136505;28;20179;-53
2021/01/01 06:40:35;;;;;;;33.53;22.35;;;;;;;;;;5136103;28;20218;-53
2021/01/01 06:43:03;;;;;;;37.85;22.88;;;;;;;;;;5136088;28;20266;-55
2021/01/01 06:45:39;;;;;;;33.15;22.60;;;;;;;;;;5136067;28;20272;-52
2021/01/01 06:48:07;;;;;;;33.13;20.92;;;;;;;;;;5136224;28;20206;-57
2021/01/01 06:50:34;;;;;;;35.78;23.15;;;;;;;;;;5136065;28;20190;-48
2021/01/01 06:53:32;;;;;;;33.42;20.65;;;;;;;;;;5136300;28;20195;-53
2021/01/01 06:56:08;;;;;;;34.65;21.33;;;;;;;;;;5139384;28;20199;-54
2021/01/01 06:58:35;;;;;;;40.13;22.10;;;;;;;;;;5140058;28;20198;-58
2021/01/01 07:01:16;;;;;;;40.33;22.55;;;;;;;;;;5140606;28;20206;-53
2021/01/01 07:03:44;;;;;;;35.58;21.52;;;;;;;;;;5140054;28;20218;-55
2021/01/01 07:06:30;;;;;;;40.50;22.23;;;;;;;;;;5140111;28;20215;-49
2021/01/01 07:08:56;;;;;;;34.88;21.27;;;;;;;;;;5139737;28;20636;-52
2021/01/01 07:11:36;;;;;;;31.92;19.88;;;;;;;;;;5140372;28;20195;-47
2021/01/01 07:14:07;;;;;;;37.15;23.20;;;;;;;;;;5139990;28;20202;-52
2021/01/01 07:16:35;;;;;;;35.63;20.77;;;;;;;;;;5139712;28;20200;-53
2021/01/01 07:19:03;;;;;;;30.90;20.15;;;;;;;;;;5139849;28;20484;-51
2021/01/01 07:21:30;;;;;;;36.38;20.52;;;;;;;;;;5139716;28;20229;-56
2021/01/01 07:23:57;;;;;;;30.20;19.55;;;;;;;;;;5140368;28;20202;-54
2021/01/01 07:26:27;;;;;;;30.55;18.83;;;;;;;;;;5144253;27;20242;-50
2021/01/01 07:28:55;;;;;;;26.50;17.60;;;;;;;;;;5161465;27;20209;-53
2021/01/01 07:31:55;;;;;;;33.83;19.83;;;;;;;;;;5161576;27;20179;-54
2021/01/01 07:34:23;;;;;;;29.42;18.77;;;;;;;;;;5161011;27;20211;-51
2021/01/01 07:36:51;;;;;;;32.97;20.75;;;;;;;;;;5160513;27;20202;-47
2021/01/01 07:39:44;;;;;;;32.13;20.25;;;;;;;;;;5160050;27;20197;-58
2021/01/01 07:42:11;;;;;;;33.72;19.85;;;;;;;;;;5159793;27;20211;-54
2021/01/01 07:44:38;;;;;;;30.58;19.65;;;;;;;;;;5160146;27;20226;-49
2021/01/01 07:47:12;;;;;;;32.75;20.50;;;;;;;;;;5160257;27;20193;-49
2021/01/01 07:49:41;;;;;;;31.20;18.25;;;;;;;;;;5160440;27;20239;-57
2021/01/01 07:52:07;;;;;;;31.30;20.55;;;;;;;;;;5159829;27;20206;-53
2021/01/01 07:54:49;;;;;;;31.13;20.40;;;;;;;;;;5160153;27;20198;-56
2021/01/01 07:57:20;;;;;;;31.60;20.25;;;;;;;;;;5159672;27;20217;-51
2021/01/01 07:59:48;;;;;;;28.45;18.20;;;;;;;;;;5158909;27;20201;-52
2021/01/01 08:02:15;;;;;;;28.42;19.15;;;;;;;;;;5160552;27;20278;-53
2021/01/01 08:04:43;;;;;;;36.30;19.90;;;;;;;;;;5159324;27;20234;-51
2021/01/01 08:07:22;;;;;;;36.20;21.27;;;;;;;;;;5157511;27;20191;-56
2021/01/01 08:09:49;;;;;;;27.05;16.45;;;;;;;;;;5159599;27;20189;-55
2021/01/01 08:12:15;;;;;;;32.53;20.55;;;;;;;;;;5159210;27;20207;-54
2021/01/01 08:14:58;;;;;;;33.67;19.45;;;;;;;;;;5159778;27;20232;-50
2021/01/01 08:17:29;;;;;;;30.23;17.60;;;;;;;;;;5157414;27;20234;-59
2021/01/01 08:19:56;;;;;;;27.17;19.77;;;;;;;;;;5159567;27;20312;-53
2021/01/01 08:22:31;;;;;;;38.22;21.17;;;;;;;;;;5159267;27;20206;-54
2021/01/01 08:24:58;;;;;;;29.23;19.95;;;;;;;;;;5159359;27;20221;-47
2021/01/01 08:27:26;;;;;;;30.27;20.83;;;;;;;;;;5159616;27;20187;-57
2021/01/01 08:30:00;;;;;;;35.55;21.00;;;;;;;;;;5159877;27;20193;-48
2021/01/01 08:32:27;;;;;;;35.88;23.65;;;;;;;;;;5159882;27;20212;-53
2021/01/01 08:34:54;;;;;;;35.10;21.92;;;;;;;;;;5159390;27;20191;-56
2021/01/01 08:37:23;;;;;;;34.10;23.77;;;;;;;;;;5158676;27;20696;-56
2021/01/01 08:40:01;;;;;;;35.50;24.00;;;;;;;;;;5158964;27;20211;-56
2021/01/01 08:42:32;;;;;;;45.58;25.67;;;;;;;;;;5157737;27;20189;-52
2021/01/01 08:44:59;;;;;;;37.92;23.83;;;;;;;;;;5147030;27;20233;-55
2021/01/01 08:47:45;;;;;;;38.15;23.98;;;;;;;;;;5147441;27;20203;-50
2021/01/01 08:50:19;;;;;;;35.63;25.00;;;;;;;;;;5158090;27;20258;-44
2021/01/01 08:52:48;;;;;;;37.38;26.17;;;;;;;;;;5164430;27;20193;-51
2021/01/01 08:55:47;;;;;;;48.92;27.65;;;;;;;;;;5180082;27;20187;-53
2021/01/01 08:58:15;;;;;;;41.08;26.73;;;;;;;;;;5138554;27;20206;-54
2021/01/01 09:00:44;;;;;;;45.35;29.25;;;;;;;;;;5153589;27;20200;-50
2021/01/01 09:06:18;;;;;;;50.08;30.48;;;;;;;;;;5142124;27;20255;-54
2021/01/01 09:08:46;;;;;;;47.88;27.73;;;;;;;;;;5158949;27;20207;-50
2021/01/01 09:11:27;;;;;;;48.10;29.63;;;;;;;;;;5138555;27;20231;-55
2021/01/01 09:14:00;;;;;;;50.58;30.52;;;;;;;;;;5137627;28;20206;-57
2021/01/01 09:16:27;;;;;;;41.47;28.40;;;;;;;;;;5141700;27;20225;-53
2021/01/01 09:19:13;;;;;;;47.10;29.90;;;;;;;;;;5158375;27;20191;-53
2021/01/01 09:21:40;;;;;;;45.42;28.50;;;;;;;;;;5163556;27;20232;-55
2021/01/01 09:24:08;;;;;;;46.25;29.25;;;;;;;;;;5168086;27;20224;-54
2021/01/01 09:26:40;;;;;;;49.97;30.50;;;;;;;;;;5158982;27;20218;-59
2021/01/01 09:29:08;;;;;;;50.10;31.25;;;;;;;;;;5158319;27;20207;-53
2021/01/01 09:31:36;;;;;;;52.20;31.95;;;;;;;;;;5157604;27;20223;-54
2021/01/01 09:34:05;;;;;;;46.60;31.42;;;;;;;;;;5148548;27;20203;-55
2021/01/01 09:36:36;;;;;;;50.38;30.95;;;;;;;;;;5156408;27;20202;-54
2021/01/01 09:39:03;;;;;;;47.85;31.98;;;;;;;;;;5153475;27;20194;-56
2021/01/01 09:41:48;;;;;;;52.45;30.88;;;;;;;;;;5158830;27;20225;-58
2021/01/01 09:44:16;;;;;;;47.42;30.83;;;;;;;;;;5149827;27;20202;-50
2021/01/01 09:46:43;;;;;;;51.75;30.65;;;;;;;;;;5152709;27;20200;-55
2021/01/01 09:49:24;;;;;;;47.85;30.42;;;;;;;;;;5157282;27;20235;-58
2021/01/01 09:51:51;;;;;;;45.72;28.00;;;;;;;;;;5155845;27;20200;-54
2021/01/01 09:54:18;;;;;;;46.60;30.05;;;;;;;;;;5157532;27;20186;-52
2021/01/01 09:59:50;;;;;;;41.75;28.50;;;;;;;;;;5156480;27;20270;-56
2021/01/01 10:02:17;;;;;;;47.08;30.17;;;;;;;;;;5156907;27;20255;-52
2021/01/01 10:04:46;;;;;;;44.03;29.35;;;;;;;;;;5156423;27;20258;-57
2021/01/01 10:07:15;;;;;;;48.80;30.83;;;;;;;;;;5156340;27;20234;-57
2021/01/01 10:09:42;;;;;;;48.83;28.55;;;;;;;;;;5154030;27;20216;-57
2021/01/01 10:12:21;;;;;;;41.05;27.27;;;;;;;;;;5157615;27;20198;-53
2021/01/01 10:14:50;;;;;;;46.17;29.80;;;;;;;;;;5157245;27;20282;-51
2021/01/01 10:17:18;;;;;;;38.42;25.88;;;;;;;;;;5146758;27;20243;-53
2021/01/01 10:19:46;;;;;;;42.92;28.05;;;;;;;;;;5156362;27;20218;-59
2021/01/01 10:22:13;;;;;;;38.90;26.77;;;;;;;;;;5156857;27;20212;-59
2021/01/01 10:27:43;;;;;;;43.65;27.20;;;;;;;;;;5156274;28;20254;-55
2021/01/01 10:30:12;;;;;;;41.40;25.95;;;;;;;;;;5155470;27;20204;-51
2021/01/01 10:33:06;;;;;;;44.03;28.08;;;;;;;;;;5156140;28;20226;-50
2021/01/01 10:35:34;;;;;;;45.17;26.20;;;;;;;;;;5135450;28;20229;-56
2021/01/01 10:38:02;;;;;;;40.17;24.70;;;;;;;;;;5154339;27;20207;-51
2021/01/01 10:40:41;;;;;;;36.83;24.98;;;;;;;;;;5171734;27;20186;-55
2021/01/01 10:43:09;;;;;;;34.03;24.00;;;;;;;;;;5155929;28;20191;-55
2021/01/01 10:45:36;;;;;;;42.20;25.90;;;;;;;;;;5164552;27;20270;-51
2021/01/01 10:48:05;;;;;;;43.05;26.83;;;;;;;;;;5146192;27;20211;-51
2021/01/01 10:50:32;;;;;;;40.22;26.20;;;;;;;;;;5155680;28;20218;-55
2021/01/01 10:53:01;;;;;;;40.15;25.27;;;;;;;;;;5156225;28;20214;-52
2021/01/01 10:55:31;;;;;;;40.67;23.88;;;;;;;;;;5156875;28;20195;-56
2021/01/01 10:57:58;;;;;;;38.85;23.88;;;;;;;;;;5147399;28;20243;-53
2021/01/01 11:00:39;;;;;;;38.92;24.10;;;;;;;;;;5150992;27;20203;-54
2021/01/01 11:03:06;;;;;;;38.40;26.85;;;;;;;;;;5154537;27;20259;-54
2021/01/01 11:05:34;;;;;;;41.42;25.92;;;;;;;;;;5147119;28;20212;-58
2021/01/01 11:08:14;;;;;;;36.47;22.98;;;;;;;;;;5138676;28;20206;-56
2021/01/01 11:10:42;;;;;;;37.83;25.13;;;;;;;;;;5149680;27;20222;-57
2021/01/01 11:13:09;;;;;;;38.70;24.67;;;;;;;;;;5156496;28;20207;-56
2021/01/01 12:20:58;;;;;;;29.60;18.77;;;;;;;;;;5156001;27;20262;-54
2021/01/01 12:23:42;;;;;;;34.45;21.00;;;;;;;;;;5150800;27;20186;-51
2021/01/01 12:26:09;;;;;;;32.22;19.73;;;;;;;;;;5154877;27;20225;-56
2021/01/01 12:28:48;;;;;;;38.47;21.00;;;;;;;;;;5144854;27;20336;-55
2021/01/01 12:31:15;;;;;;;38.90;21.42;;;;;;;;;;5154713;27;20206;-59
2021/01/01 12:33:42;;;;;;;35.25;21.65;;;;;;;;;;5140350;27;20212;-54
2021/01/01 12:36:17;;;;;;;32.03;18.70;;;;;;;;;;5142688;27;20199;-50
2021/01/01 12:38:43;;;;;;;30.75;17.77;;;;;;;;;;5149257;27;20201;-54
2021/01/01 12:41:10;;;;;;;27.10;17.55;;;;;;;;;;5151046;27;20202;-54
2021/01/01 12:43:49;;;;;;;33.83;18.77;;;;;;;;;;5127401;27;20202;-54
2021/01/01 12:46:16;;;;;;;31.73;19.17;;;;;;;;;;5156953;27;20232;-58
2021/01/01 12:48:44;;;;;;;28.92;17.73;;;;;;;;;;5157139;27;20204;-50
2021/01/01 12:51:20;;;;;;;35.50;20.10;;;;;;;;;;5157098;27;20201;-50
2021/01/01 12:53:48;;;;;;;27.10;18.08;;;;;;;;;;5156766;27;20205;-56
2021/01/01 12:56:15;;;;;;;33.45;19.30;;;;;;;;;;5157231;27;20193;-51
2021/01/01 12:58:45;;;;;;;29.60;18.85;;;;;;;;;;5155415;27;20214;-57
2021/01/01 13:01:12;;;;;;;29.70;18.10;;;;;;;;;;5153122;27;20197;-55
2021/01/01 13:03:39;;;;;;;29.73;19.30;;;;;;;;;;5158752;27;20186;-53
2021/01/01 13:09:11;;;;;;;26.48;15.95;;;;;;;;;;5145263;27;20252;-52
2021/01/01 13:12:04;;;;;;;30.20;18.20;;;;;;;;;;5136688;28;20198;-55
2021/01/01 13:14:54;;;;;;;31.13;19.30;;;;;;;;;;5136994;27;20186;-58
2021/01/01 13:17:22;;;;;;;31.02;19.48;;;;;;;;;;5141469;27;20335;-54
2021/01/01 13:19:49;;;;;;;29.95;16.85;;;;;;;;;;5155680;27;20204;-54
2021/01/01 13:22:15;;;;;;;26.27;15.80;;;;;;;;;;5148134;27;20206;-54
2021/01/01 13:24:43;;;;;;;27.08;16.42;;;;;;;;;;5153311;27;20243;-53
2021/01/01 13:27:25;;;;;;;27.10;16.83;;;;;;;;;;5138795;27;20198;-53
2021/01/01 13:29:54;;;;;;;26.90;14.63;;;;;;;;;;5147750;27;20231;-50
2021/01/01 13:32:22;;;;;;;22.27;15.35;;;;;;;;;;5136724;28;20203;-53
2021/01/01 13:35:06;;;;;;;25.33;16.30;;;;;;;;;;5136488;28;20236;-52
2021/01/01 13:37:37;;;;;;;27.15;17.50;;;;;;;;;;5134880;28;20224;-55
2021/01/01 13:40:06;;;;;;;26.70;15.23;;;;;;;;;;5131685;28;20202;-55
2021/01/01 13:42:43;;;;;;;31.30;18.33;;;;;;;;;;5126553;28;20204;-52
2021/01/01 13:45:11;;;;;;;27.52;16.80;;;;;;;;;;5132138;28;20232;-53
2021/01/01 13:47:41;;;;;;;29.25;16.15;;;;;;;;;;5128797;28;20193;-49
2021/01/01 13:50:28;;;;;;;25.67;17.65;;;;;;;;;;5123469;28;20208;-50
2021/01/01 13:52:58;;;;;;;29.83;16.38;;;;;;;;;;5114580;28;20197;-53
2021/01/01 13:55:25;;;;;;;25.98;16.00;;;;;;;;;;5120614;28;20199;-54
2021/01/01 13:57:53;;;;;;;24.92;14.93;;;;;;;;;;5114629;28;20259;-53
2021/01/01 14:00:20;;;;;;;29.95;17.52;;;;;;;;;;5131392;27;20196;-50
2021/01/01 14:02:55;;;;;;;24.60;16.25;;;;;;;;;;5132341;28;20181;-55
2021/01/01 14:05:21;;;;;;;25.58;17.05;;;;;;;;;;5124220;28;20211;-47
2021/01/01 14:07:48;;;;;;;31.67;17.88;;;;;;;;;;5127475;28;20209;-52
2021/01/01 14:10:19;;;;;;;31.02;17.73;;;;;;;;;;5129303;27;20270;-53
2021/01/01 14:12:46;;;;;;;24.15;16.70;;;;;;;;;;5129928;28;20269;-52
2021/01/01 14:15:13;;;;;;;30.45;18.95;;;;;;;;;;5129593;28;20183;-58
2021/01/01 14:17:53;;;;;;;28.90;16.48;;;;;;;;;;5122980;28;20189;-60
2021/01/01 14:20:20;;;;;;;24.85;16.20;;;;;;;;;;5114273;28;20207;-51
2021/01/01 14:22:46;;;;;;;24.70;14.70;;;;;;;;;;5122415;28;20193;-51
2021/01/01 14:25:13;;;;;;;25.95;15.80;;;;;;;;;;5132972;27;20219;-51
2021/01/01 14:27:42;;;;;;;26.65;16.25;;;;;;;;;;5127144;28;20202;-55
2021/01/01 14:30:16;;;;;;;28.33;15.98;;;;;;;;;;5128379;28;20498;-55
2021/01/01 14:32:44;;;;;;;24.33;15.57;;;;;;;;;;5148816;28;20205;-53
2021/01/01 14:35:11;;;;;;;28.40;16.60;;;;;;;;;;5135226;28;20189;-54
2021/01/01 14:37:39;;;;;;;26.23;15.48;;;;;;;;;;5134552;28;20290;-50
2021/01/01 14:40:13;;;;;;;23.35;15.10;;;;;;;;;;5133416;28;20283;-54
2021/01/01 14:42:41;;;;;;;23.02;14.95;;;;;;;;;;5119223;28;20199;-53
2021/01/01 14:45:11;;;;;;;22.92;16.02;;;;;;;;;;5125334;28;20200;-55
2021/01/01 14:47:42;;;;;;;25.80;15.38;;;;;;;;;;5116803;28;20193;-56
2021/01/01 14:50:10;;;;;;;25.77;15.60;;;;;;;;;;5134887;28;20201;-52
2021/01/01 14:52:57;;;;;;;26.40;15.23;;;;;;;;;;5120774;28;20210;-54
2021/01/01 14:55:26;;;;;;;26.58;16.33;;;;;;;;;;5130789;28;20194;-51
2021/01/01 14:57:56;;;;;;;25.83;15.13;;;;;;;;;;5147361;27;20410;-55
2021/01/01 15:00:38;;;;;;;25.67;15.77;;;;;;;;;;5145403;27;20207;-52
2021/01/01 15:03:21;;;;;;;25.95;16.05;;;;;;;;;;5163526;27;20198;-58
2021/01/01 15:05:51;;;;;;;23.55;16.25;;;;;;;;;;5156379;28;20218;-54
2021/01/01 15:08:18;;;;;;;24.75;15.40;;;;;;;;;;5150231;28;20191;-53
2021/01/01 15:10:46;;;;;;;24.17;14.52;;;;;;;;;;5147014;28;20221;-52
2021/01/01 15:13:30;;;;;;;30.17;17.15;;;;;;;;;;5156856;28;20205;-54
2021/01/01 15:15:58;;;;;;;27.58;17.90;;;;;;;;;;5150018;27;20214;-51
2021/01/01 15:18:26;;;;;;;31.85;17.08;;;;;;;;;;5158305;27;20197;-52
2021/01/01 15:20:57;;;;;;;32.10;19.00;;;;;;;;;;5158202;27;20214;-55
2021/01/01 15:23:24;;;;;;;30.45;18.08;;;;;;;;;;5143943;27;20254;-56
2021/01/01 15:25:51;;;;;;;32.95;19.60;;;;;;;;;;5137498;28;20271;-52
2021/01/01 15:28:37;;;;;;;34.50;20.35;;;;;;;;;;5138034;28;20214;-54
2021/01/01 15:31:04;;;;;;;29.65;17.60;;;;;;;;;;5137898;28;20204;-49
2021/01/01 15:33:33;;;;;;;40.28;19.63;;;;;;;;;;5137999;27;20192;-53
2021/01/01 15:36:06;;;;;;;36.15;18.15;;;;;;;;;;5137729;28;20206;-54
2021/01/01 15:38:34;;;;;;;32.97;20.45;;;;;;;;;;5130602;28;20207;-49
2021/01/01 15:41:01;;;;;;;30.38;19.27;;;;;;;;;;5137554;28;20237;-48
2021/01/01 15:43:33;;;;;;;33.50;19.50;;;;;;;;;;5135336;28;20208;-49
2021/01/01 15:45:59;;;;;;;45.03;21.73;;;;;;;;;;5138089;28;20209;-52
2021/01/01 15:48:27;;;;;;;31.38;18.88;;;;;;;;;;5138592;27;20203;-58
2021/01/01 15:50:57;;;;;;;40.58;21.30;;;;;;;;;;5139036;28;20255;-52
2021/01/01 15:53:24;;;;;;;34.40;20.10;;;;;;;;;;5139903;27;20292;-51
2021/01/01 15:56:03;;;;;;;41.70;23.67;;;;;;;;;;5150711;27;20194;-61
2021/01/01 15:58:51;;;;;;;34.13;20.42;;;;;;;;;;5153957;27;20222;-52
2021/01/01 16:01:18;;;;;;;31.83;19.50;;;;;;;;;;5154737;27;20191;-54
2021/01/01 16:03:45;;;;;;;24.90;17.85;;;;;;;;;;5157606;27;20565;-52
2021/01/01 16:06:19;;;;;;;35.92;21.45;;;;;;;;;;5157989;27;20294;-52